Other Surface Observations
Issued by NWS Missoula, MT

Home | Current Version | Previous Version | Text Only | Print | Product List | Glossary On
Versions: 1 2 3 4 5 6 7 8 9 10 11 12 13 14 15 16 17 18 19 20 21 22 23 24 25 26 27 28 29 30 31 32 33 34 35 36 37 38 39 40 41 42 43 44 45 46 47 48 49 50
000
SXUS55 KMSO 061303
OSOMSO
MONTANA AWOS SUMMARY
NATIONAL WEATHER SERVICE MISSOULA MT
703 AM MDT WED MAY 6 2015

Montana AWOS Reports

ROUNDUP     |KRPX 061255Z AUTO 00000KT 40SM 09/04 A2975 RMK AO1 T00890039
LAUREL      |K6S8 061255Z AUTO 34005KT 15SM 10/07 A2981 RMK AO1 T01000072
TWIN BRIDGES|K7S1 061255Z AUTO 32014G18KT 40SM 04/00 A2989 RMK AO1 T00390000
SCOBEY      |K9S2 061255Z AUTO 00000KT 7SM 08/04 A2969 RMK AO1 T00780044




USA.gov is the U.S. government's official web portal to all federal, state and local government web resources and services.